Laddonia, MO

1:50 AM CDT on July 30, 2014 (GMT -0500)
KMOMEXIC4 Elev 778 ft | 39.17 °N, 91.87 °W | Change Station

Current weather conditions updated 13 minutes ago

Clear
Clear
62.5 °F
Feels Like 62.5 °F
N
0.0
Wind Variable Wind from East
Gusts 0.0 mph

Today is forecast to be nearly the same temperature as yesterday.

Today
High -- | Low -- °F
--% Chance of Precip.
Yesterday
High -- | Low -- °F
Precip. -- in
6:04 AM 8:20 PM
Waxing Crescent, 10% visible
Pressure 30.10 in
Visibility 10.0 miles
Clouds Clear
Dew Point 60 °F
Humidity 92%
Rainfall 0.00 in
Snow Depth Not available.
UV 0 out of 12
Pollen 6.30 out of 12
Air Quality Not available.
Flu Activity Not available.
METAR KHAE 300635Z AUTO 00000KT 10SM CLR 17/12 A3010 RMK AO2

More Conditions Fewer Conditions

Pressure 30.10 in
Visibility 10.0 miles
Clouds Clear
Dew Point 60 °F
Humidity 92%
Rainfall 0.00 in
Snow Depth Not available.
UV 0 out of 12
Pollen 6.30 out of 12
Air Quality Not available.
Flu Activity Not available.
METAR KHAE 300635Z AUTO 00000KT 10SM CLR 17/12 A3010 RMK AO2

More Conditions Fewer Conditions

10-Day Weather Forecast

Almanac

Astronomy

Jul. 30, 2014 Rise Set
Actual Time 6:04 AM CDT 8:20 PM CDT
Civil Twilight 5:34 AM CDT 8:50 PM CDT
Nautical Twilight 4:57 AM CDT 9:27 PM CDT
Astronomical Twilight 4:17 AM CDT 10:07 PM CDT
Moon 9:35 AM CDT 10:05 PM CDT
Length of Visible Light 15h 15m
Length of Day
14h 15m
Tomorrow will be 1m 52s shorter.
Waxing Crescent, 10% of the Moon is Illuminated
Today
Waxing Crescent
Aug 3
First Quarter
Aug 10
Full
Aug 17
Last Quarter
Aug 25
New

Today's Extremes

State Highs State Lows

Community

WunderPhotos

Upload Photos

1,739,022 photos uploaded!

WunderBlogs® & News

By Dr. Jeff Masters
Director of Meteorology, Weather Underground
By Kari Strenfel
Meteorologist, Weather Underground
By Christopher C. Burt
Weather Historian, Weather Underground
July 29, 2014
July 29, 2014
July 29, 2014

Nearby

Snow Depth

Station Depth Elevation
No new snow has been reported.

Earthquake Activity

City Distance Mag. Time & Date
No recent earthquake activity has been reported nearby.
Minimum magnitude displayed is 2.5.

Coastal Water Temperatures

Place Temperature
No Stations Reporting

Nearby Weather Stations

Station Location Temp. Dew Point Humidity Wind Precip. Elev Updated Type
Mexico, MO 62.5 °F 60 °F 92% East  at  0.0 mph 0.00 in / hr 778 ft 1:36 AM CDT Normal
Near Lakeview Lake, Mexico, MO 62.7 °F 59 °F 87% South  at  0.0 mph 0.00 in / hr 817 ft 1:50 AM CDT Rapid Fire
ALSAT Wireless, Montgomery City, MO 62.0 °F 58 °F 88% South  at  0.0 mph 0.00 in / hr 810 ft 1:50 AM CDT Rapid Fire

Show More Stations Show Fewer Stations